Time;durP1;ratioP1;P1;durP2;ratioP2;P2;SDS_P1;SDS_P2;PMS_P1;PMS_P2;Temp;Humidity;BMP_temperature;BMP_pressure;BME280_temperature;BME280_humidity;BME280_pressure;Samples;Min_cycle;Max_cycle;Signal;HPM_P1;HPM_P2
2022/12/14 00:00:52;;;;;;;28.02;18.23;;;;;;;-4.03;100.00;66340.63;5034257;28;20179;-84
2022/12/14 00:03:18;;;;;;;29.27;18.73;;;;;;;-4.00;100.00;66343.41;5028031;28;20052;-84
2022/12/14 00:05:43;;;;;;;27.00;17.20;;;;;;;-4.03;100.00;66343.22;5028924;28;20431;-84
2022/12/14 00:08:10;;;;;;;28.73;17.35;;;;;;;-4.02;100.00;66343.78;5029898;28;20651;-84
2022/12/14 00:10:37;;;;;;;31.00;19.35;;;;;;;-4.01;100.00;66345.47;5029809;28;20209;-84
2022/12/14 00:13:04;;;;;;;29.27;18.70;;;;;;;-4.04;100.00;66341.53;5030335;28;20047;-83
2022/12/14 00:15:29;;;;;;;29.40;17.67;;;;;;;-4.04;100.00;66339.50;5028511;28;20055;-84
2022/12/14 00:17:55;;;;;;;30.70;18.20;;;;;;;-4.03;100.00;66338.00;5031007;28;20120;-84
2022/12/14 00:20:20;;;;;;;29.17;17.88;;;;;;;-3.99;100.00;66349.75;5030536;28;20604;-84
2022/12/14 00:22:46;;;;;;;31.05;18.98;;;;;;;-4.03;100.00;66338.00;5032374;28;20497;-84
2022/12/14 00:25:11;;;;;;;28.05;16.90;;;;;;;-4.05;100.00;66338.38;5035635;28;20096;-82
2022/12/14 00:27:44;;;;;;;30.88;19.17;;;;;;;-4.04;100.00;66341.53;5035680;28;20110;-82
2022/12/14 00:30:16;;;;;;;30.13;17.52;;;;;;;-4.00;100.00;66344.00;5049461;28;20045;-82
2022/12/14 00:32:42;;;;;;;31.65;17.13;;;;;;;-4.06;100.00;66334.09;5037006;28;20044;-83
2022/12/14 00:35:09;;;;;;;31.55;18.60;;;;;;;-4.06;100.00;66334.66;5038671;28;20046;-83
2022/12/14 00:37:35;;;;;;;33.05;19.77;;;;;;;-4.04;100.00;66342.09;5037046;28;20033;-83
2022/12/14 00:40:01;;;;;;;30.27;17.40;;;;;;;-4.02;100.00;66346.38;5037812;28;20080;-84
2022/12/14 00:42:26;;;;;;;28.95;18.02;;;;;;;-4.04;100.00;66342.09;5035602;28;20521;-84
2022/12/14 00:44:52;;;;;;;29.45;17.58;;;;;;;-4.05;100.00;66338.38;5039100;28;20041;-84
2022/12/14 00:47:17;;;;;;;29.70;16.73;;;;;;;-4.04;100.00;66341.53;5037569;28;20033;-84
2022/12/14 00:49:42;;;;;;;29.48;19.48;;;;;;;-4.00;100.00;66346.00;5032003;28;20438;-84
2022/12/14 00:52:08;;;;;;;30.70;17.50;;;;;;;-3.99;100.00;66347.16;5037527;28;20140;-84
2022/12/14 00:54:33;;;;;;;25.75;17.73;;;;;;;-4.01;100.00;66342.84;5037206;28;20033;-84
2022/12/14 00:56:58;;;;;;;27.52;16.88;;;;;;;-3.99;100.00;66344.56;5036707;28;20053;-84
2022/12/14 00:59:23;;;;;;;27.40;16.75;;;;;;;;;;5036622;28;20037;-84
2022/12/14 01:01:49;;;;;;;26.42;16.65;;;;;;;-4.00;100.00;66344.00;5035518;28;20045;-83
2022/12/14 01:04:18;;;;;;;28.52;17.83;;;;;;;-3.97;100.00;66349.94;5040180;28;20044;-83
2022/12/14 01:06:48;;;;;;;27.15;16.42;;;;;;;-3.99;100.00;66341.94;5038142;28;20045;-83
2022/12/14 01:09:14;;;;;;;28.27;16.25;;;;;;;-4.01;100.00;66348.06;5029226;28;20036;-84
2022/12/14 01:11:40;;;;;;;29.75;17.23;;;;;;;-4.02;100.00;66341.75;5038952;28;20057;-84
2022/12/14 01:14:06;;;;;;;28.27;15.90;;;;;;;-4.01;100.00;66339.69;5039011;28;20045;-84
2022/12/14 01:16:32;;;;;;;30.95;17.27;;;;;;;-4.05;100.00;66338.38;5039976;28;20056;-84
2022/12/14 01:18:59;;;;;;;30.50;17.67;;;;;;;-4.04;100.00;66338.94;5032503;28;20527;-84
2022/12/14 01:21:25;;;;;;;24.08;14.70;;;;;;;-4.04;100.00;66336.34;5032015;28;20041;-83
2022/12/14 01:23:53;;;;;;;29.58;17.88;;;;;;;-4.02;100.00;66344.34;5038639;28;20057;-84
2022/12/14 01:26:20;;;;;;;30.70;17.73;;;;;;;-4.00;100.00;66341.41;5036568;28;20099;-84
2022/12/14 01:28:47;;;;;;;26.73;16.52;;;;;;;-4.02;100.00;66341.75;5035240;28;20068;-83
2022/12/14 01:31:15;;;;;;;28.35;16.67;;;;;;;-4.01;100.00;66344.91;5038149;28;20040;-83
2022/12/14 01:33:42;;;;;;;27.67;15.15;;;;;;;-4.04;100.00;66339.50;5035940;28;20136;-83
2022/12/14 01:36:10;;;;;;;27.75;16.48;;;;;;;-4.05;100.00;66340.97;5033796;28;20037;-83
2022/12/14 01:38:36;;;;;;;27.40;14.77;;;;;;;-4.07;100.00;66335.59;5033228;28;20029;-83
2022/12/14 01:41:01;;;;;;;28.75;13.65;;;;;;;-4.09;100.00;66336.50;5035173;28;20064;-83
2022/12/14 01:43:48;;;;;;;25.90;15.25;;;;;;;-4.09;100.00;66337.06;5038351;28;20051;-83
2022/12/14 01:46:28;;;;;;;24.45;14.80;;;;;;;-4.09;100.00;66331.28;5032515;28;20068;-83
2022/12/14 01:48:56;;;;;;;27.02;15.95;;;;;;;;;;5037240;28;20566;-83
2022/12/14 01:51:24;;;;;;;25.23;14.60;;;;;;;-4.06;100.00;66334.66;5036246;28;20045;-83
2022/12/14 01:53:50;;;;;;;27.98;13.75;;;;;;;-4.05;100.00;66338.38;5037318;28;20037;-83
2022/12/14 01:56:16;;;;;;;27.35;15.75;;;;;;;-4.03;100.00;66340.06;5035674;28;20532;-83
2022/12/14 01:58:42;;;;;;;25.13;15.18;;;;;;;-4.03;100.00;66340.06;5036909;28;20814;-84
2022/12/14 02:01:10;;;;;;;25.90;14.95;;;;;;;-4.03;100.00;66342.66;5036208;28;20065;-84
2022/12/14 02:03:40;;;;;;;24.17;13.90;;;;;;;-4.04;100.00;66338.94;5033908;28;20457;-83
2022/12/14 02:06:10;;;;;;;25.00;14.07;;;;;;;-4.01;100.00;66340.25;5035702;28;20045;-83
2022/12/14 02:08:38;;;;;;;22.23;12.43;;;;;;;-4.05;100.00;66337.84;5036915;28;20540;-83
2022/12/14 02:11:03;;;;;;;24.70;13.40;;;;;;;-4.05;100.00;66335.78;5034654;28;20049;-83
2022/12/14 02:13:37;;;;;;;23.63;13.18;;;;;;;-4.03;100.00;66338.00;5019222;28;20048;-83
2022/12/14 02:16:02;;;;;;;25.05;14.93;;;;;;;;;;5022839;28;20140;-83
2022/12/14 02:18:30;;;;;;;26.52;14.52;;;;;;;-4.11;100.00;66336.88;5037436;28;20520;-83
2022/12/14 02:21:15;;;;;;;27.75;14.40;;;;;;;;;;5033677;28;20041;-83
2022/12/14 02:24:09;;;;;;;28.70;15.32;;;;;;;-4.20;100.00;66318.97;5037984;28;20084;-84
2022/12/14 02:27:09;;;;;;;25.00;15.45;;;;;;;-4.26;100.00;66312.25;5046210;28;20440;-84
2022/12/14 02:30:03;;;;;;;38.13;15.50;;;;;;;-4.28;100.00;66312.63;5030772;28;20060;-84
2022/12/14 02:32:43;;;;;;;26.48;14.43;;;;;;;-4.27;100.00;66311.16;5028912;28;20033;-83
2022/12/14 02:35:20;;;;;;;26.27;16.52;;;;;;;-4.25;100.00;66318.59;5051237;28;20045;-83
2022/12/14 02:37:56;;;;;;;27.70;16.45;;;;;;;-4.31;100.00;66307.78;5035610;28;20039;-84
2022/12/14 02:41:09;;;;;;;25.95;15.10;;;;;;;-4.34;100.00;66303.88;5017157;28;20136;-84
2022/12/14 02:43:37;;;;;;;28.40;17.23;;;;;;;-4.36;100.00;66304.22;4985502;28;20049;-84
2022/12/14 02:46:14;;;;;;;25.25;15.20;;;;;;;-4.37;100.00;66305.72;5012694;28;20057;-85
2022/12/14 02:48:47;;;;;;;26.08;14.65;;;;;;;-4.43;100.00;66293.78;5032324;28;20034;-84
2022/12/14 02:51:50;;;;;;;27.85;15.15;;;;;;;-4.44;100.00;66295.25;5049461;28;20076;-84
2022/12/14 02:54:24;;;;;;;26.23;15.20;;;;;;;-4.45;100.00;66292.13;5044910;28;20388;-84
2022/12/14 02:56:55;;;;;;;27.08;14.80;;;;;;;-4.42;100.00;66294.91;5036013;28;20033;-84
2022/12/14 02:59:22;;;;;;;29.48;16.88;;;;;;;-4.42;100.00;66295.47;5037583;28;20873;-84
2022/12/14 03:01:49;;;;;;;28.33;16.65;;;;;;;-4.44;100.00;66298.41;5037777;28;20041;-84
2022/12/14 03:04:15;;;;;;;27.65;16.40;;;;;;;-4.43;100.00;66298.97;5037012;28;20755;-84
2022/12/14 03:07:01;;;;;;;29.20;15.05;;;;;;;-4.48;100.00;66293.94;5037843;28;20041;-84
2022/12/14 03:09:28;;;;;;;27.60;14.45;;;;;;;-4.52;100.00;66289.47;5026447;28;20042;-84
2022/12/14 03:12:00;;;;;;;28.20;16.77;;;;;;;-4.54;100.00;66282.03;5046672;28;20404;-84
2022/12/14 03:14:30;;;;;;;27.65;15.93;;;;;;;-4.63;100.00;66277.72;5033858;28;20038;-84
2022/12/14 03:17:02;;;;;;;29.75;16.77;;;;;;;-4.59;100.00;66279.03;5034970;28;20033;-84
2022/12/14 03:19:36;;;;;;;29.98;15.23;;;;;;;-4.67;100.00;66270.06;5036864;28;20608;-84
2022/12/14 03:22:16;;;;;;;26.48;15.38;;;;;;;-4.71;100.00;66271.34;5037082;28;20138;-84
2022/12/14 03:25:07;;;;;;;24.70;13.82;;;;;;;-4.75;100.00;66264.28;5038889;28;20040;-84
2022/12/14 03:27:37;;;;;;;28.60;15.68;;;;;;;-4.80;100.00;66256.66;5020295;28;20073;-83
2022/12/14 03:30:09;;;;;;;28.10;15.65;;;;;;;-4.81;100.00;66252.91;5038296;28;20060;-84
2022/12/14 03:32:39;;;;;;;28.55;15.20;;;;;;;-4.83;100.00;66253.28;5037995;28;20038;-84
2022/12/14 03:35:17;;;;;;;29.45;15.88;;;;;;;-4.92;100.00;66240.63;5052455;28;20735;-83
2022/12/14 03:38:06;;;;;;;21.95;13.93;;;;;;;-4.90;100.00;66245.44;5024937;28;20049;-83
2022/12/14 03:41:12;;;;;;;29.00;15.82;;;;;;;-4.98;100.00;66236.50;5037318;28;20175;-84
2022/12/14 03:43:58;;;;;;;28.25;16.55;;;;;;;-5.00;100.00;66232.22;5000502;28;20074;-83
2022/12/14 03:46:46;;;;;;;26.25;15.70;;;;;;;-5.01;100.00;66230.53;5042286;28;20040;-84
2022/12/14 03:49:41;;;;;;;29.38;18.08;;;;;;;-5.04;100.00;66230.34;5036469;28;20057;-84
2022/12/14 03:52:15;;;;;;;29.88;16.52;;;;;;;-5.09;100.00;66224.75;5028224;28;20065;-84
2022/12/14 03:54:49;;;;;;;28.17;16.65;;;;;;;-5.11;100.00;66225.09;5031727;28;20676;-84
2022/12/14 03:57:40;;;;;;;27.90;17.77;;;;;;;-5.20;100.00;66212.44;5037556;28;20046;-84
2022/12/14 04:00:11;;;;;;;26.00;15.70;;;;;;;-5.18;100.00;66211.53;5051374;28;20041;-84
2022/12/14 04:03:07;;;;;;;33.03;17.95;;;;;;;-5.18;100.00;66211.53;5035909;28;20064;-84
2022/12/14 04:05:39;;;;;;;30.00;17.65;;;;;;;-5.29;100.00;66202.94;5045767;28;20512;-84
2022/12/14 04:08:07;;;;;;;30.95;18.27;;;;;;;-5.30;100.00;66203.84;5037733;28;20052;-84
2022/12/14 04:19:22;;;;;;;31.55;18.10;;;;;;;-5.47;100.00;66180.19;5026593;28;20047;-84
2022/12/14 04:22:26;;;;;;;27.67;16.25;;;;;;;-5.50;100.00;66179.44;5036087;28;20060;-84
2022/12/14 04:29:55;;;;;;;29.77;18.48;;;;;;;-5.59;100.00;66166.78;5029301;28;20094;-84
2022/12/14 04:31:03;;;;;;;28.85;18.25;;;;;;;-5.65;100.00;66160.06;5016321;28;20034;-83
2022/12/14 04:33:47;;;;;;;30.95;19.08;;;;;;;-5.66;100.00;66164.69;5033310;28;20117;-84
2022/12/14 04:36:18;;;;;;;28.63;17.50;;;;;;;-5.66;100.00;66159.50;5030180;28;20037;-83
2022/12/14 04:38:47;;;;;;;30.13;17.10;;;;;;;-5.70;100.00;66160.78;5030018;28;20042;-82
2022/12/14 04:41:19;;;;;;;31.67;16.65;;;;;;;-5.71;100.00;66157.06;5030085;28;20061;-84
2022/12/14 04:43:47;;;;;;;31.33;18.42;;;;;;;-5.79;100.00;66150.72;5031261;28;20096;-83
2022/12/14 04:46:23;;;;;;;30.17;18.13;;;;;;;-5.79;100.00;66148.13;5027347;28;20041;-83
2022/12/14 04:49:18;;;;;;;25.85;15.82;;;;;;;-5.80;100.00;66144.41;5030504;28;20125;-83
2022/12/14 04:51:58;;;;;;;29.75;17.08;;;;;;;-5.85;100.00;66143.44;5030531;28;20053;-83
2022/12/14 04:54:33;;;;;;;27.55;15.70;;;;;;;-5.94;100.00;66134.53;5035587;28;20097;-83
2022/12/14 04:57:13;;;;;;;31.38;18.45;;;;;;;-5.91;100.00;66132.66;5043489;28;20406;-83
2022/12/14 04:59:38;;;;;;;26.73;15.05;;;;;;;-5.92;100.00;66136.75;5031689;28;20041;-82
2022/12/14 05:02:25;;;;;;;29.05;16.98;;;;;;;-5.96;100.00;66132.28;5029486;28;20045;-82
2022/12/14 05:05:05;;;;;;;29.80;16.17;;;;;;;-5.99;100.00;66126.34;5027959;28;20042;-82
2022/12/14 05:08:12;;;;;;;26.35;15.07;;;;;;;-6.02;100.00;66125.56;5025766;28;20042;-82
2022/12/14 05:10:43;;;;;;;30.00;16.35;;;;;;;-6.04;100.00;66120.19;5041418;28;20026;-82
2022/12/14 05:13:20;;;;;;;28.48;15.57;;;;;;;-6.03;100.00;66118.72;5032990;28;20455;-82
2022/12/14 05:15:52;;;;;;;26.85;14.95;;;;;;;-6.00;100.00;66127.81;5028180;28;20038;-83
2022/12/14 05:18:18;;;;;;;27.52;16.25;;;;;;;-6.01;100.00;66126.72;5025528;28;20125;-83
2022/12/14 05:20:45;;;;;;;25.48;14.48;;;;;;;-6.04;100.00;66117.59;5034329;28;20057;-83
2022/12/14 05:23:11;;;;;;;26.58;14.65;;;;;;;-6.02;100.00;66125.00;5032653;28;20046;-83
2022/12/14 05:25:36;;;;;;;26.63;16.55;;;;;;;-6.04;100.00;66117.59;5033926;28;20049;-82
2022/12/14 05:28:02;;;;;;;27.58;15.32;;;;;;;-6.05;100.00;66117.03;5032997;28;20037;-83
2022/12/14 05:30:27;;;;;;;29.88;17.45;;;;;;;-6.02;100.00;66125.00;5026954;28;20046;-82
2022/12/14 05:32:53;;;;;;;27.98;15.13;;;;;;;-6.04;100.00;66122.78;5034376;28;20117;-83
2022/12/14 05:35:19;;;;;;;26.60;15.85;;;;;;;-6.01;100.00;66126.72;5032403;28;20738;-83
2022/12/14 05:37:44;;;;;;;28.67;15.88;;;;;;;-6.03;100.00;66121.88;5029039;28;20046;-83
2022/12/14 05:40:10;;;;;;;25.20;15.80;;;;;;;-5.98;100.00;66126.91;5023022;28;20033;-83
2022/12/14 05:42:37;;;;;;;25.67;14.27;;;;;;;-6.12;100.00;66111.81;5030615;28;20033;-84
2022/12/14 05:45:02;;;;;;;27.60;16.33;;;;;;;-6.05;100.00;66119.63;5025537;28;20455;-83
2022/12/14 05:47:28;;;;;;;25.42;16.05;;;;;;;-6.08;100.00;66118.88;5026956;28;20046;-83
2022/12/14 05:49:53;;;;;;;29.35;16.17;;;;;;;-6.07;100.00;66116.84;5014732;28;20041;-84
2022/12/14 05:52:19;;;;;;;26.33;14.05;;;;;;;-6.20;100.00;66103.44;5022344;28;20034;-83
2022/12/14 05:54:44;;;;;;;27.90;15.55;;;;;;;-6.16;100.00;66110.50;5030120;28;20053;-83
2022/12/14 05:57:11;;;;;;;27.15;15.45;;;;;;;-6.17;100.00;66106.78;5035423;28;20037;-84
2022/12/14 05:59:37;;;;;;;25.73;14.15;;;;;;;-6.26;100.00;66096.72;5034117;28;20038;-86
2022/12/14 06:02:04;;;;;;;27.02;17.60;;;;;;;-6.17;100.00;66106.78;5033579;28;20046;-85
2022/12/14 06:04:29;;;;;;;27.20;15.35;;;;;;;-6.14;100.00;66106.97;5033926;28;20580;-85
2022/12/14 06:06:55;;;;;;;24.05;15.05;;;;;;;-6.14;100.00;66109.56;5032607;28;20033;-85
2022/12/14 06:09:20;;;;;;;25.05;13.50;;;;;;;-6.16;100.00;66104.75;5034594;28;20068;-85
2022/12/14 06:11:46;;;;;;;26.83;16.25;;;;;;;;;;5035475;28;20061;-85
2022/12/14 06:14:12;;;;;;;29.13;16.80;;;;;;;-6.06;100.00;66115.38;5036532;28;20057;-85
2022/12/14 06:16:42;;;;;;;24.23;14.77;;;;;;;-6.10;100.00;66113.47;5034316;28;20543;-85
2022/12/14 06:19:08;;;;;;;26.70;15.70;;;;;;;-6.13;100.00;66108.09;5037474;28;20100;-85
2022/12/14 06:21:36;;;;;;;22.30;14.70;;;;;;;-6.19;100.00;66107.13;5039032;28;20045;-85
2022/12/14 06:24:03;;;;;;;27.33;16.55;;;;;;;-6.14;100.00;66112.16;5033371;28;20041;-86
2022/12/14 06:26:29;;;;;;;28.02;14.80;;;;;;;-6.15;100.00;66108.47;5034674;28;20045;-84
2022/12/14 06:28:56;;;;;;;26.75;15.25;;;;;;;-6.16;100.00;66104.75;5035148;28;20038;-84
2022/12/14 06:31:28;;;;;;;26.60;14.68;;;;;;;-6.21;100.00;66102.31;5029465;28;20108;-83
2022/12/14 06:33:55;;;;;;;26.17;14.50;;;;;;;-6.18;100.00;66102.53;5034719;28;20105;-84
2022/12/14 06:36:23;;;;;;;24.98;14.88;;;;;;;-6.22;100.00;66106.38;5046068;28;20044;-83
2022/12/14 06:38:50;;;;;;;27.20;15.48;;;;;;;-6.20;100.00;66106.00;5057272;28;20060;-83
2022/12/14 06:41:16;;;;;;;28.08;15.25;;;;;;;-6.15;100.00;66108.47;5040288;28;20041;-83
2022/12/14 06:43:42;;;;;;;25.17;16.45;;;;;;;-6.13;100.00;66111.25;5037530;28;20048;-83
2022/12/14 06:46:09;;;;;;;27.17;15.18;;;;;;;-6.17;100.00;66106.22;5037039;28;20049;-83
2022/12/14 06:48:34;;;;;;;26.73;15.73;;;;;;;-6.27;100.00;66092.44;5035446;28;20500;-83
2022/12/14 06:51:01;;;;;;;27.25;15.45;;;;;;;-6.25;100.00;66099.88;5037135;28;20041;-84
2022/12/14 06:53:26;;;;;;;25.50;13.85;;;;;;;-6.34;100.00;66090.38;5038622;28;20061;-84
2022/12/14 06:55:51;;;;;;;25.35;14.18;;;;;;;-6.40;100.00;66086.25;5037023;28;20069;-84
2022/12/14 06:58:17;;;;;;;28.40;15.57;;;;;;;-6.41;100.00;66080.53;5036411;28;20037;-84
2022/12/14 07:00:43;;;;;;;26.73;15.75;;;;;;;-6.38;100.00;66080.72;5038671;28;20339;-84
2022/12/14 07:03:08;;;;;;;27.08;15.50;;;;;;;-6.45;100.00;66075.47;5034663;28;20065;-85
2022/12/14 07:05:34;;;;;;;27.67;16.65;;;;;;;-6.45;100.00;66080.66;5034146;28;20060;-84
2022/12/14 07:08:00;;;;;;;29.67;16.17;;;;;;;-6.47;100.00;66073.25;5037562;28;20048;-84
2022/12/14 07:10:25;;;;;;;27.60;15.50;;;;;;;-6.49;100.00;66073.59;5036452;28;20033;-84
2022/12/14 07:12:50;;;;;;;29.27;17.13;;;;;;;-6.56;100.00;66055.97;5033762;28;21068;-84
2022/12/14 07:15:16;;;;;;;28.08;15.95;;;;;;;-6.54;100.00;66068.00;5031992;28;20048;-84
2022/12/14 07:17:41;;;;;;;29.73;17.52;;;;;;;-6.54;100.00;66063.41;5049823;28;20172;-84
2022/12/14 07:20:07;;;;;;;25.65;15.10;;;;;;;-6.57;100.00;66064.66;5032700;28;20029;-84
2022/12/14 07:22:34;;;;;;;30.83;17.33;;;;;;;-6.59;100.00;66058.38;5033466;28;20136;-84
2022/12/14 07:24:59;;;;;;;30.27;16.77;;;;;;;-6.60;100.00;66061.88;5031784;28;20045;-84
2022/12/14 07:27:25;;;;;;;31.98;18.45;;;;;;;-6.68;100.00;66050.91;5033730;28;20061;-84
2022/12/14 07:29:51;;;;;;;28.73;14.98;;;;;;;-6.75;100.00;66040.50;5032683;28;20087;-84
2022/12/14 07:32:16;;;;;;;28.48;16.52;;;;;;;-6.77;100.00;66038.25;5029101;28;20038;-85
2022/12/14 07:34:41;;;;;;;29.95;17.10;;;;;;;-6.72;100.00;66048.47;5034250;28;20041;-84
2022/12/14 07:37:07;;;;;;;30.90;18.10;;;;;;;-6.78;100.00;66041.78;5032334;28;20026;-84
2022/12/14 07:39:32;;;;;;;32.20;17.92;;;;;;;-6.80;100.00;66037.50;5033850;28;20048;-84
2022/12/14 07:41:57;;;;;;;30.17;17.15;;;;;;;-6.74;100.00;66043.63;5033768;28;20041;-85
2022/12/14 07:44:23;;;;;;;26.70;14.38;;;;;;;-6.87;100.00;66034.84;5034687;28;20047;-84
2022/12/14 07:46:48;;;;;;;27.70;15.07;;;;;;;-7.08;100.00;66007.34;5030517;28;20065;-84
2022/12/14 07:49:13;;;;;;;26.75;17.23;;;;;;;-6.97;100.00;66021.09;5027222;28;20060;-86
2022/12/14 07:51:44;;;;;;;31.63;18.40;;;;;;;-6.97;100.00;66015.91;5034217;28;20037;-84
2022/12/14 07:54:11;;;;;;;33.63;18.38;;;;;;;-6.95;100.00;66020.75;5016479;28;20037;-84
2022/12/14 07:56:39;;;;;;;30.42;18.10;;;;;;;-6.87;100.00;66030.25;5032875;28;20072;-84
2022/12/14 07:59:07;;;;;;;29.70;15.98;;;;;;;-7.04;100.00;66011.81;5033623;28;20041;-84
2022/12/14 08:01:35;;;;;;;33.77;17.30;;;;;;;-7.05;100.00;66008.13;5030416;28;20050;-85
2022/12/14 08:04:07;;;;;;;31.45;19.77;;;;;;;-7.07;100.00;66005.31;5032863;28;20067;-84
2022/12/14 08:06:34;;;;;;;26.58;17.25;;;;;;;-7.10;100.00;66010.28;5033138;28;20115;-85
2022/12/14 08:09:00;;;;;;;26.77;18.05;;;;;;;-7.07;100.00;66011.03;5029526;28;20493;-84
2022/12/14 08:11:26;;;;;;;28.13;17.65;;;;;;;-7.16;100.00;65997.84;5032661;28;20093;-84
2022/12/14 08:13:56;;;;;;;30.35;17.20;;;;;;;-7.26;100.00;65989.81;5034320;28;20577;-85
2022/12/14 08:16:22;;;;;;;28.52;17.13;;;;;;;-7.19;100.00;65999.66;5034049;28;20041;-84
2022/12/14 08:18:48;;;;;;;27.70;16.67;;;;;;;-7.17;100.00;65997.28;5046377;28;20048;-84
2022/12/14 08:21:16;;;;;;;30.38;16.25;;;;;;;-7.22;100.00;65993.72;5033858;28;20033;-84
2022/12/14 08:23:41;;;;;;;29.45;17.50;;;;;;;-7.27;100.00;65983.53;5027740;28;20120;-84
2022/12/14 08:26:07;;;;;;;28.98;18.48;;;;;;;-7.34;100.00;65980.88;5028463;28;20108;-84
2022/12/14 08:28:34;;;;;;;29.25;16.92;;;;;;;-7.24;100.00;65992.06;5030033;28;20045;-84
2022/12/14 08:31:19;;;;;;;28.67;17.92;;;;;;;-7.14;100.00;66003.22;5032729;28;20025;-84
2022/12/14 08:33:46;;;;;;;30.60;18.45;;;;;;;-7.14;100.00;66000.06;5035789;28;20060;-84
2022/12/14 08:36:14;;;;;;;28.92;16.52;;;;;;;-7.19;100.00;65995.06;5032085;28;20342;-83
2022/12/14 08:38:40;;;;;;;31.83;17.88;;;;;;;-7.30;100.00;65985.91;5033977;28;20833;-84
2022/12/14 08:41:12;;;;;;;29.75;18.42;;;;;;;-7.37;100.00;65980.13;5027756;28;20535;-84
2022/12/14 08:43:39;;;;;;;31.10;17.52;;;;;;;-7.40;100.00;65971.59;5035781;28;20038;-83
2022/12/14 08:46:04;;;;;;;31.05;17.95;;;;;;;-7.37;100.00;65977.53;5037508;28;20052;-84
2022/12/14 08:48:30;;;;;;;29.45;16.25;;;;;;;-7.35;100.00;65979.78;5042403;28;20042;-84
2022/12/14 08:51:06;;;;;;;29.00;15.95;;;;;;;-7.30;100.00;65985.38;5032692;28;20480;-84
2022/12/14 08:53:32;;;;;;;33.65;19.73;;;;;;;-7.32;100.00;65983.69;5034446;28;20076;-84
2022/12/14 08:55:58;;;;;;;30.83;19.83;;;;;;;-7.29;100.00;65981.31;5041108;28;20050;-83
2022/12/14 08:58:25;;;;;;;33.33;20.17;;;;;;;-7.26;100.00;65989.81;5044167;28;20041;-86
2022/12/14 09:00:59;;;;;;;33.35;19.95;;;;;;;-7.27;100.00;65988.72;5043002;28;20041;-83
2022/12/14 09:03:24;;;;;;;31.40;20.35;;;;;;;-7.29;100.00;65986.47;5046413;28;20276;-84
2022/12/14 09:05:49;;;;;;;31.60;18.70;;;;;;;-7.35;100.00;65980.34;5058501;28;20033;-85
2022/12/14 09:08:15;;;;;;;29.83;17.88;;;;;;;-7.35;100.00;65979.78;5059800;28;20580;-84
2022/12/14 09:10:40;;;;;;;33.25;19.77;;;;;;;-7.31;100.00;65984.22;5047460;28;20061;-85
2022/12/14 09:13:05;;;;;;;26.55;16.35;;;;;;;-7.35;100.00;65979.78;5043438;28;20041;-85
2022/12/14 09:15:31;;;;;;;29.40;16.60;;;;;;;-7.31;100.00;65984.22;5058493;28;20041;-84
2022/12/14 09:17:56;;;;;;;30.30;19.10;;;;;;;-7.30;100.00;65983.34;5042072;28;20396;-84
2022/12/14 09:20:21;;;;;;;30.98;17.48;;;;;;;-7.11;100.00;66000.84;5035443;28;20056;-84
2022/12/14 09:22:50;;;;;;;30.95;17.88;;;;;;;-6.93;100.00;66020.38;5033811;28;20041;-84
2022/12/14 09:25:15;;;;;;;29.30;17.25;;;;;;;-6.76;100.00;66044.56;5038348;28;20045;-84
2022/12/14 09:27:41;;;;;;;27.42;16.50;;;;;;;-6.62;100.00;66059.63;5042355;28;20581;-84
2022/12/14 09:30:06;;;;;;;29.73;18.60;;;;;;;-6.48;100.00;66072.13;5050361;28;20036;-84
2022/12/14 09:32:32;;;;;;;27.45;17.67;;;;;;;-6.42;100.00;66081.41;5038018;28;20288;-83
2022/12/14 09:34:58;;;;;;;29.45;18.98;;;;;;;-6.34;100.00;66084.63;5041621;28;20029;-84
2022/12/14 09:37:23;;;;;;;27.90;17.23;;;;;;;-6.21;100.00;66104.91;5039697;28;20037;-84
2022/12/14 09:39:49;;;;;;;30.33;17.40;;;;;;;-6.04;100.00;66120.75;5034111;28;20049;-85
2022/12/14 09:42:46;;;;;;;30.27;17.98;;;;;;;-5.84;100.00;66147.16;5048002;28;20041;-84
2022/12/14 09:45:24;;;;;;;26.67;16.35;;;;;;;-5.69;100.00;66159.31;5046614;28;20042;-84
2022/12/14 09:48:01;;;;;;;26.38;17.63;;;;;;;-5.61;100.00;66167.13;5050871;28;20048;-85
2022/12/14 09:50:27;;;;;;;27.02;16.15;;;;;;;-5.62;100.00;66166.00;5064631;28;20033;-85
2022/12/14 09:52:57;;;;;;;28.65;17.60;;;;;;;-5.45;100.00;66185.03;5045542;28;20064;-85
2022/12/14 09:55:23;;;;;;;27.95;16.15;;;;;;;-5.24;100.00;66205.38;5056500;28;20355;-85
2022/12/14 09:57:54;;;;;;;24.67;16.23;;;;;;;-5.12;100.00;66221.41;5045301;28;20416;-85
2022/12/14 10:00:19;;;;;;;27.73;16.88;;;;;;;-5.04;100.00;66227.19;5037687;28;20566;-85
2022/12/14 10:02:57;;;;;;;26.90;16.10;;;;;;;-4.96;100.00;66236.13;5040492;28;20037;-86
2022/12/14 10:05:28;;;;;;;25.17;16.20;;;;;;;-4.84;100.00;66254.75;5067440;28;20476;-85
2022/12/14 10:08:19;;;;;;;23.70;14.52;;;;;;;-4.73;100.00;66260.75;5034740;28;20501;-86
2022/12/14 10:11:09;;;;;;;24.75;15.00;;;;;;;-4.55;100.00;66286.09;5032920;28;20467;-85
2022/12/14 10:14:30;;;;;;;26.17;15.38;;;;;;;-4.59;100.00;66279.03;5015990;28;20141;-86
2022/12/14 10:17:12;;;;;;;20.92;13.07;;;;;;;-4.50;100.00;66285.94;4975135;28;20041;-84
2022/12/14 10:19:56;;;;;;;24.77;15.20;;;;;;;-4.39;100.00;66304.03;5038551;28;20045;-84
2022/12/14 10:22:31;;;;;;;22.10;14.48;;;;;;;-4.38;100.00;66305.13;5021168;28;20037;-84
2022/12/14 10:25:08;;;;;;;23.27;14.48;;;;;;;-4.33;100.00;66307.59;5038721;28;20045;-84
2022/12/14 10:27:34;;;;;;;20.73;14.65;;;;;;;;;;5041486;28;20045;-84
2022/12/14 10:30:04;;;;;;;27.05;14.98;;;;;;;;;;5041483;28;20037;-85
2022/12/14 10:32:37;;;;;;;21.00;14.82;;;;;;;-4.21;100.00;66317.88;5039354;28;20049;-85
2022/12/14 10:35:13;;;;;;;18.70;12.98;;;;;;;-4.09;100.00;66333.91;5037146;28;20285;-87
2022/12/14 10:37:42;;;;;;;21.73;14.52;;;;;;;-4.02;100.00;66343.78;5038715;28;20038;-86
2022/12/14 10:40:07;;;;;;;;;;;;;;;;;;5038591;28;20044;-85
2022/12/14 10:42:47;;;;;;;22.00;13.60;;;;;;;-4.02;100.00;66344.34;5039848;28;19972;-85
2022/12/14 10:45:15;;;;;;;21.23;13.82;;;;;;;-3.87;100.00;66355.38;5037810;28;20041;-85
2022/12/14 10:47:45;;;;;;;20.10;12.30;;;;;;;-3.63;100.00;66384.31;5038762;28;20128;-86
2022/12/14 10:50:22;;;;;;;19.52;14.20;;;;;;;-3.39;100.00;66410.66;5034382;28;20042;-84
2022/12/14 10:52:52;;;;;;;18.88;12.95;;;;;;;-3.52;95.67;66394.03;5051950;28;20037;-86
2022/12/14 10:55:27;;;;;;;18.27;13.10;;;;;;;-3.41;96.29;66405.81;5032287;28;20041;-86
2022/12/14 10:57:53;;;;;;;22.48;12.48;;;;;;;-3.10;98.02;66439.44;5032921;28;20049;-85
2022/12/14 11:00:18;;;;;;;21.20;12.93;;;;;;;-3.13;95.74;66436.09;5029042;28;20795;-85
2022/12/14 11:02:46;;;;;;;19.77;11.00;;;;;;;;;;5031163;28;20045;-85
2022/12/14 11:05:14;;;;;;;16.58;10.45;;;;;;;;;;5031109;28;20519;-85
2022/12/14 11:07:42;;;;;;;20.10;11.18;;;;;;;-2.98;95.10;66456.06;5031640;28;20045;-85
2022/12/14 11:10:22;;;;;;;18.38;11.80;;;;;;;-2.79;95.06;66474.19;5023244;28;20054;-85
2022/12/14 11:12:58;;;;;;;16.38;11.75;;;;;;;-2.68;95.05;66485.41;5032081;28;20033;-85
2022/12/14 11:15:33;;;;;;;19.45;12.80;;;;;;;-2.77;93.50;66475.88;5026938;28;20025;-85
2022/12/14 11:18:01;;;;;;;19.02;12.25;;;;;;;-2.77;93.71;66475.88;5031553;28;20033;-84
2022/12/14 11:20:27;;;;;;;18.70;11.15;;;;;;;-2.63;94.09;66491.56;5033843;28;20037;-84
2022/12/14 11:23:04;;;;;;;16.27;10.45;;;;;;;-2.56;93.62;66499.44;5035393;28;20041;-84
2022/12/14 11:25:34;;;;;;;18.15;11.20;;;;;;;-2.40;94.26;66516.25;5042480;28;20046;-84
2022/12/14 11:28:28;;;;;;;18.42;12.48;;;;;;;-2.34;93.20;66517.78;5036823;28;20087;-83
2022/12/14 11:31:04;;;;;;;17.30;11.05;;;;;;;-2.30;93.47;66527.47;5030695;28;20048;-83
2022/12/14 11:33:37;;;;;;;18.30;12.60;;;;;;;-2.24;92.70;66539.44;5043949;28;20048;-83
2022/12/14 11:36:03;;;;;;;16.95;9.70;;;;;;;-2.26;92.28;66526.75;5027517;28;20537;-83
2022/12/14 11:38:29;;;;;;;18.98;12.35;;;;;;;-2.13;92.67;66549.16;5041603;28;20129;-83
2022/12/14 11:40:55;;;;;;;16.73;10.18;;;;;;;;;;5019444;28;20044;-83
2022/12/14 11:43:26;;;;;;;17.92;10.52;;;;;;;-1.86;92.57;66580.94;5029885;28;20046;-83
2022/12/14 11:45:53;;;;;;;16.48;10.93;;;;;;;;;;5027878;28;20045;-83